createdAt,value
2019-02-21T00:04:37.926Z,101005.74
2019-02-21T00:09:42.202Z,101014.41
2019-02-21T00:14:46.410Z,101009.40
2019-02-21T00:19:50.534Z,101009.40
2019-02-21T00:24:54.625Z,101014.02
2019-02-21T00:29:58.815Z,101012.35
2019-02-21T00:35:03.301Z,101012.35
2019-02-21T00:40:07.634Z,101020.05
2019-02-21T00:45:11.878Z,101019.77
2019-02-21T00:50:17.053Z,101017.45
2019-02-21T00:55:21.197Z,101021.88
2019-02-21T01:00:25.304Z,101021.88
2019-02-21T01:05:29.347Z,101020.23
2019-02-21T01:10:33.537Z,101033.98
2019-02-21T01:15:37.587Z,101027.61
2019-02-21T01:20:41.603Z,101026.10
2019-02-21T01:25:45.622Z,101022.23
2019-02-21T01:30:56.646Z,101023.16
2019-02-21T01:35:55.777Z,101026.48
2019-02-21T01:40:59.941Z,101029.75
2019-02-21T01:46:04.132Z,101029.75
2019-02-21T01:51:08.287Z,101016.77
2019-02-21T01:56:12.417Z,101028.69
2019-02-21T02:01:16.532Z,101021.67
2019-02-21T02:06:20.708Z,101017.30
2019-02-21T02:11:24.851Z,101017.30
2019-02-21T02:16:28.973Z,101006.34
2019-02-21T02:21:33.111Z,100987.23
2019-02-21T02:26:37.241Z,100997.08
2019-02-21T02:31:41.926Z,100988.23
2019-02-21T02:36:46.155Z,100988.23
2019-02-21T02:41:50.260Z,100998.14
2019-02-21T02:46:54.410Z,100983.40
2019-02-21T02:51:58.475Z,100991.80
2019-02-21T02:57:02.618Z,100994.73
2019-02-21T03:02:06.747Z,100995.70
2019-02-21T03:07:10.772Z,100995.70
2019-02-21T03:12:14.892Z,100989.06
2019-02-21T03:17:18.929Z,100986.14
2019-02-21T03:22:22.977Z,100984.41
2019-02-21T03:27:27.067Z,100984.41
2019-02-21T03:32:31.201Z,100989.47
2019-02-21T03:37:35.244Z,101001.19
2019-02-21T03:42:39.383Z,101002.63
2019-02-21T03:47:43.417Z,100977.95
2019-02-21T03:52:47.467Z,100993.30
2019-02-21T03:57:51.683Z,100986.50
2019-02-21T04:02:55.786Z,101005.89
2019-02-21T04:07:59.928Z,101014.50
2019-02-21T04:13:04.147Z,101021.80
2019-02-21T04:18:08.306Z,101012.00
2019-02-21T04:23:12.451Z,101018.78
2019-02-21T04:28:16.501Z,101018.01
2019-02-21T04:33:20.593Z,101018.01
2019-02-21T04:38:24.750Z,101016.66
2019-02-21T04:43:28.920Z,101014.93
2019-02-21T04:48:33.005Z,101008.30
2019-02-21T04:53:37.135Z,101011.53
2019-02-21T04:58:41.352Z,100993.76
2019-02-21T05:03:45.511Z,101015.80
2019-02-21T05:08:49.581Z,101007.83
2019-02-21T05:13:53.725Z,101007.83
2019-02-21T05:18:57.806Z,101011.56
2019-02-21T05:24:01.952Z,101015.60
2019-02-21T05:29:08.065Z,101009.36
2019-02-21T05:34:28.889Z,101009.89
2019-02-21T05:39:44.751Z,101004.61
2019-02-21T05:45:11.427Z,100998.84
2019-02-21T05:50:31.165Z,101006.05
2019-02-21T05:55:47.645Z,101011.00
2019-02-21T06:00:58.738Z,101011.00
2019-02-21T06:06:24.868Z,101003.41
2019-02-21T06:11:35.425Z,101000.88
2019-02-21T06:16:57.438Z,100999.05
2019-02-21T06:22:21.793Z,101008.55
2019-02-21T06:27:37.906Z,101019.84
2019-02-21T06:32:41.021Z,101019.84
2019-02-21T06:37:45.100Z,101023.97
2019-02-21T06:42:49.128Z,101015.61
2019-02-21T06:47:53.207Z,101017.33
2019-02-21T06:52:57.232Z,101018.83
2019-02-21T06:58:01.277Z,101021.91
2019-02-21T07:03:15.095Z,101021.91
2019-02-21T07:08:11.062Z,101027.84
2019-02-21T07:13:26.119Z,101021.22
2019-02-21T07:18:20.911Z,101026.59
2019-02-21T07:23:25.339Z,101027.08
2019-02-21T07:28:29.364Z,101032.03
2019-02-21T07:33:33.401Z,101035.19
2019-02-21T07:38:37.700Z,101031.64
2019-02-21T07:43:41.724Z,101020.44
2019-02-21T07:48:45.756Z,101020.44
2019-02-21T07:53:49.779Z,101037.97
2019-02-21T07:58:53.946Z,101037.97
2019-02-21T08:03:58.013Z,101068.78
2019-02-21T08:09:02.058Z,101080.29
2019-02-21T08:14:06.105Z,101080.29
2019-02-21T08:19:10.132Z,101062.76
2019-02-21T08:24:14.179Z,101063.25
2019-02-21T08:29:20.673Z,101056.39
2019-02-21T08:34:28.372Z,101058.44
2019-02-21T08:39:32.427Z,101063.73
2019-02-21T08:44:36.452Z,101065.02
2019-02-21T08:49:40.535Z,101069.56
2019-02-21T08:54:44.561Z,101070.19
2019-02-21T08:59:48.604Z,101070.19
2019-02-21T09:04:52.700Z,101058.02
2019-02-21T09:09:56.794Z,101085.94
2019-02-21T09:15:00.837Z,101080.74
2019-02-21T09:20:05.228Z,101067.14
2019-02-21T09:25:11.214Z,101084.00
2019-02-21T09:30:16.974Z,101088.75
2019-02-21T09:35:20.985Z,101092.45
2019-02-21T09:40:25.031Z,101092.45
2019-02-21T09:45:29.156Z,101074.50
2019-02-21T09:50:33.232Z,101094.06
2019-02-21T09:55:37.287Z,101094.06
2019-02-21T10:00:41.387Z,101089.55
2019-02-21T10:05:45.409Z,101088.14
2019-02-21T10:10:49.520Z,101091.27
2019-02-21T10:15:53.660Z,101096.12
2019-02-21T10:20:57.748Z,101096.70
2019-02-21T10:26:01.851Z,101096.70
2019-02-21T10:31:05.949Z,101092.70
2019-02-21T10:36:09.990Z,101091.59
2019-02-21T10:41:14.097Z,101091.59
2019-02-21T10:46:18.127Z,101079.02
2019-02-21T10:51:22.257Z,101079.02
2019-02-21T10:56:26.282Z,101077.34
2019-02-21T11:01:30.421Z,101072.52
2019-02-21T11:06:34.524Z,101072.52
2019-02-21T11:11:38.633Z,101056.05
2019-02-21T11:16:42.793Z,101051.92
2019-02-21T11:21:46.813Z,101049.18
2019-02-21T11:26:50.922Z,101039.82
2019-02-21T11:31:55.031Z,101039.58
2019-02-21T11:36:59.122Z,101032.47
2019-02-21T11:42:03.150Z,101022.57
2019-02-21T11:47:07.320Z,101022.57
2019-02-21T11:52:11.435Z,101018.05
2019-02-21T11:57:15.488Z,101001.81
2019-02-21T12:02:19.509Z,100988.91
2019-02-21T12:07:23.560Z,100988.91
2019-02-21T12:12:27.672Z,100992.17
2019-02-21T12:17:31.773Z,100995.34
2019-02-21T12:22:35.784Z,100995.34
2019-02-21T12:27:39.911Z,100995.34
2019-02-21T12:32:44.013Z,100982.84
2019-02-21T12:37:48.184Z,100982.84
2019-02-21T12:42:52.304Z,100970.52
2019-02-21T12:47:56.411Z,100945.84
2019-02-21T12:53:00.441Z,100945.84
2019-02-21T12:58:04.542Z,100956.20
2019-02-21T13:03:08.580Z,100955.09
2019-02-21T13:08:12.619Z,100969.93
2019-02-21T13:13:16.651Z,100962.63
2019-02-21T13:18:20.690Z,100944.27
2019-02-21T13:23:24.714Z,100948.36
2019-02-21T13:28:28.739Z,100957.39
2019-02-21T13:33:32.796Z,100955.56
2019-02-21T13:38:36.883Z,100949.62
2019-02-21T13:43:40.952Z,100949.62
2019-02-21T13:48:45.011Z,100971.84
2019-02-21T13:53:49.115Z,100965.13
2019-02-21T13:58:53.235Z,100965.13
2019-02-21T14:03:57.400Z,100970.95
2019-02-21T14:09:01.436Z,100968.83
2019-02-21T14:14:05.634Z,100979.11
2019-02-21T14:19:09.694Z,100970.07
2019-02-21T14:24:13.739Z,100948.07
2019-02-21T14:29:17.788Z,100958.05
2019-02-21T14:34:21.921Z,100943.53
2019-02-21T14:39:25.961Z,100943.53
2019-02-21T14:44:30.028Z,100951.07
2019-02-21T14:49:34.064Z,100938.70
2019-02-21T14:54:38.253Z,100956.64
2019-02-21T14:59:44.637Z,100953.56
2019-02-21T15:04:48.070Z,100940.62
2019-02-21T15:09:52.143Z,100947.38
2019-02-21T15:14:56.214Z,100944.78
2019-02-21T15:20:00.479Z,100944.78
2019-02-21T15:25:04.831Z,100949.39
2019-02-21T15:30:11.489Z,100948.44
2019-02-21T15:35:15.737Z,100949.84
2019-02-21T15:40:19.810Z,100947.62
2019-02-21T15:45:24.450Z,100950.80
2019-02-21T15:50:28.632Z,100953.20
2019-02-21T15:55:32.685Z,100953.68
2019-02-21T16:00:36.779Z,100950.19
2019-02-21T16:05:40.803Z,100946.84
2019-02-21T16:10:44.893Z,100960.91
2019-02-21T16:15:48.996Z,100960.91
2019-02-21T16:20:53.204Z,100967.33
2019-02-21T16:25:57.237Z,100964.64
2019-02-21T16:31:01.351Z,100962.83
2019-02-21T16:36:05.478Z,100987.80
2019-02-21T16:41:09.527Z,100994.05
2019-02-21T16:46:13.548Z,100994.05
2019-02-21T16:51:17.568Z,101014.41
2019-02-21T16:56:21.611Z,101012.20
2019-02-21T17:01:25.675Z,101015.75
2019-02-21T17:06:29.809Z,101012.91
2019-02-21T17:11:33.856Z,101012.91
2019-02-21T17:16:37.919Z,101016.84
2019-02-21T17:21:41.952Z,101012.29
2019-02-21T17:26:46.085Z,101007.72
2019-02-21T17:31:50.242Z,101006.05
2019-02-21T17:36:54.289Z,100997.33
2019-02-21T17:41:58.313Z,100997.33
2019-02-21T17:47:02.394Z,101013.98
2019-02-21T17:52:06.425Z,100994.23
2019-02-21T17:57:10.545Z,100994.23
2019-02-21T18:02:14.774Z,101001.75
2019-02-21T18:07:18.838Z,101014.83
2019-02-21T18:12:22.895Z,101004.05
2019-02-21T18:17:26.945Z,101004.05
2019-02-21T18:27:34.248Z,101002.03
2019-02-21T18:32:38.386Z,100998.95
2019-02-21T18:37:47.547Z,100998.95
2019-02-21T18:42:48.450Z,101007.24
2019-02-21T18:47:52.648Z,101016.39
2019-02-21T18:52:56.680Z,101012.83
2019-02-21T18:58:00.903Z,101003.34
2019-02-21T19:03:05.109Z,101015.86
2019-02-21T19:08:09.319Z,101012.02
2019-02-21T19:13:13.545Z,101011.16
2019-02-21T19:18:17.702Z,100992.49
2019-02-21T19:23:21.899Z,101004.66
2019-02-21T19:28:26.089Z,101005.23
2019-02-21T19:33:31.027Z,101005.23
2019-02-21T19:38:35.218Z,101005.52
2019-02-21T19:43:39.286Z,101006.46
2019-02-21T19:48:43.353Z,101006.46
2019-02-21T19:53:47.591Z,101017.25
2019-02-21T19:58:51.623Z,101016.87
2019-02-21T20:03:55.769Z,101008.78
2019-02-21T20:08:59.799Z,101009.84
2019-02-21T20:14:03.912Z,101009.84
2019-02-21T20:19:07.939Z,101013.41
2019-02-21T20:24:12.349Z,101029.77
2019-02-21T20:29:16.535Z,101034.94
2019-02-21T20:34:20.593Z,101034.94
2019-02-21T20:39:24.728Z,101031.38
2019-02-21T20:44:28.906Z,101026.48
2019-02-21T20:49:32.928Z,101033.12
2019-02-21T20:54:37.055Z,101031.66
2019-02-21T20:59:41.176Z,101026.05
2019-02-21T21:04:45.371Z,101030.29
2019-02-21T21:09:49.637Z,101030.29
2019-02-21T21:14:53.780Z,101046.89
2019-02-21T21:19:57.824Z,101037.15
2019-02-21T21:25:01.977Z,101052.54
2019-02-21T21:30:07.308Z,101052.54
2019-02-21T21:35:11.513Z,101053.77
2019-02-21T21:40:16.624Z,101053.77
2019-02-21T21:45:20.887Z,101049.82
2019-02-21T21:50:25.090Z,101058.48
2019-02-21T21:55:29.277Z,101058.48
2019-02-21T22:00:33.370Z,101054.54
2019-02-21T22:05:37.568Z,101063.39
2019-02-21T22:10:41.593Z,101055.56
2019-02-21T22:15:45.663Z,101060.67
2019-02-21T22:20:49.761Z,101057.27
2019-02-21T22:25:53.808Z,101057.27
2019-02-21T22:30:58.218Z,101057.27
2019-02-21T22:36:02.713Z,101054.28
2019-02-21T22:41:06.740Z,101051.59
2019-02-21T22:46:10.840Z,101051.59
2019-02-21T22:51:14.914Z,101056.98
2019-02-21T22:56:18.956Z,101072.09
2019-02-21T23:01:30.029Z,101067.05
2019-02-21T23:06:45.656Z,101069.42
2019-02-21T23:11:50.043Z,101072.05
2019-02-21T23:16:54.206Z,101075.23
2019-02-21T23:21:58.522Z,101059.95
2019-02-21T23:27:02.956Z,101072.59
2019-02-21T23:32:07.180Z,101074.65
2019-02-21T23:37:11.534Z,101083.69
2019-02-21T23:42:15.864Z,101086.25
2019-02-21T23:47:20.154Z,101086.25
2019-02-21T23:52:24.344Z,101093.27
2019-02-21T23:57:28.628Z,101105.58
